Time,TemperatureF,DewpointF,PressureIn,WindDirection,WindDirectionDegrees,WindSpeedMPH,WindSpeedGustMPH,Humidity,HourlyPrecipIn,Conditions,Clouds,dailyrainin,SoftwareType,DateUTC
2013-04-23 00:09:00,48.5,35.7,29.94,South,179,2.0,5.0,61,0.00,,---,0.00,VWS V14.01,2013-04-23 05:09:00,
2013-04-23 00:39:00,48.7,35.9,29.93,SW,228,0.0,7.0,61,0.00,,---,0.00,VWS V14.01,2013-04-23 05:39:00,
2013-04-23 01:09:00,48.5,36.5,29.92,South,175,0.0,4.0,63,0.00,,---,0.00,VWS V14.01,2013-04-23 06:09:00,
2013-04-23 01:39:00,48.6,37.0,29.91,South,184,0.0,0.0,64,0.00,,---,0.00,VWS V14.01,2013-04-23 06:39:00,
2013-04-23 02:09:00,49.9,37.8,29.89,South,184,0.0,4.0,63,0.00,,---,0.00,VWS V14.01,2013-04-23 07:09:00,
2013-04-23 02:39:00,51.3,37.9,29.88,South,178,2.0,9.0,60,0.00,,---,0.00,VWS V14.01,2013-04-23 07:39:00,
2013-04-23 03:09:00,50.3,40.5,29.89,West,280,0.0,7.0,69,0.00,,---,0.00,VWS V14.01,2013-04-23 08:09:00,
2013-04-23 03:39:00,49.6,41.3,29.88,WSW,242,0.0,0.0,73,0.00,,---,0.00,VWS V14.01,2013-04-23 08:39:00,
2013-04-23 04:09:00,48.9,42.3,29.85,SW,218,0.0,0.0,78,0.00,,---,0.00,VWS V14.01,2013-04-23 09:09:00,
2013-04-23 04:39:00,48.8,43.2,29.83,SSW,212,0.0,3.0,81,0.00,,---,0.00,VWS V14.01,2013-04-23 09:39:00,
2013-04-23 05:09:00,48.7,43.8,29.84,SSW,200,2.0,5.0,83,0.00,,---,0.00,VWS V14.01,2013-04-23 10:09:00,
2013-04-23 05:39:00,48.6,44.0,29.80,SE,142,0.0,5.0,84,0.00,,---,0.00,VWS V14.01,2013-04-23 10:39:00,
2013-04-23 06:09:00,48.5,44.2,29.84,SSW,205,3.0,6.0,85,0.00,,---,0.00,VWS V14.01,2013-04-23 11:09:00,
2013-04-23 06:39:00,48.2,44.5,29.85,SSW,192,4.0,9.0,87,0.00,,---,0.00,VWS V14.01,2013-04-23 11:39:00,
2013-04-23 07:09:00,48.7,45.0,29.84,SSW,202,3.0,7.0,87,0.00,,---,0.00,VWS V14.01,2013-04-23 12:09:00,
2013-04-23 07:39:00,49.4,45.4,29.84,SSW,198,0.0,5.0,86,0.00,,---,0.00,VWS V14.01,2013-04-23 12:39:00,
2013-04-23 08:09:00,50.7,46.0,29.83,SSW,211,3.0,9.0,84,0.00,,---,0.00,VWS V14.01,2013-04-23 13:09:00,
2013-04-23 08:39:00,52.3,47.0,29.84,SW,225,6.0,9.0,82,0.00,,---,0.00,VWS V14.01,2013-04-23 13:39:00,
2013-04-23 09:09:00,52.3,47.0,29.84,WNW,297,5.0,10.0,82,0.00,,---,0.00,VWS V14.01,2013-04-23 14:09:00,
2013-04-23 09:39:00,52.7,47.4,29.83,NW,317,3.0,11.0,82,0.00,,---,0.00,VWS V14.01,2013-04-23 14:39:00,
2013-04-23 10:09:00,52.9,47.2,29.83,NNW,343,5.0,11.0,81,0.00,,---,0.00,VWS V14.01,2013-04-23 15:09:00,
2013-04-23 10:39:00,52.5,46.5,29.83,NW,305,2.0,9.0,80,0.00,,---,0.00,VWS V14.01,2013-04-23 15:39:00,
2013-04-23 11:09:00,51.2,47.2,29.84,NNW,331,7.0,9.0,86,0.01,,---,0.01,VWS V14.01,2013-04-23 16:09:00,
2013-04-23 11:39:00,44.3,41.0,29.86,NW,324,14.0,17.0,88,0.03,,---,0.03,VWS V14.01,2013-04-23 16:39:00,
2013-04-23 12:09:00,40.6,37.6,29.86,NNW,346,8.0,18.0,89,0.07,,---,0.07,VWS V14.01,2013-04-23 17:09:00,
2013-04-23 12:39:00,38.9,36.2,29.87,NNW,331,4.0,17.0,90,0.12,,---,0.13,VWS V14.01,2013-04-23 17:39:00,
2013-04-23 13:09:00,38.6,36.2,29.85,North,355,4.0,13.0,91,0.15,,---,0.18,VWS V14.01,2013-04-23 18:09:00,
2013-04-23 13:39:00,38.2,35.8,29.86,North,355,10.0,16.0,91,0.17,,---,0.24,VWS V14.01,2013-04-23 18:39:00,
2013-04-23 14:09:00,38.0,35.6,29.85,NNE,16,10.0,16.0,91,0.16,,---,0.29,VWS V14.01,2013-04-23 19:09:00,
2013-04-23 14:39:00,37.8,35.4,29.85,NNW,333,2.0,15.0,91,0.15,,---,0.33,VWS V14.01,2013-04-23 19:39:00,
2013-04-23 15:09:00,37.5,35.1,29.86,North,355,3.0,17.0,91,0.13,,---,0.37,VWS V14.01,2013-04-23 20:09:00,
2013-04-23 15:39:00,37.7,35.0,29.85,NW,325,0.0,17.0,90,0.09,,---,0.38,VWS V14.01,2013-04-23 20:39:00,
2013-04-23 16:09:00,37.3,34.6,29.86,North,351,13.0,13.0,90,0.08,,---,0.41,VWS V14.01,2013-04-23 21:09:00,
2013-04-23 16:39:00,36.8,34.4,29.86,North,5,0.0,15.0,91,0.07,,---,0.44,VWS V14.01,2013-04-23 21:39:00,
2013-04-23 17:09:00,36.5,34.1,29.86,NNW,344,0.0,16.0,91,0.09,,---,0.47,VWS V14.01,2013-04-23 22:09:00,
2013-04-23 17:39:00,36.4,34.0,29.86,North,5,0.0,14.0,91,0.06,,---,0.47,VWS V14.01,2013-04-23 22:39:00,
2013-04-23 18:09:00,36.4,34.0,29.87,North,350,0.0,14.0,91,0.04,,---,0.48,VWS V14.01,2013-04-23 23:09:00,
2013-04-23 18:39:00,36.8,34.4,29.87,ENE,63,0.0,0.0,91,0.02,,---,0.49,VWS V14.01,2013-04-23 23:39:00,
2013-04-23 19:09:00,36.8,34.4,29.88,NNE,15,0.0,0.0,91,0.04,,---,0.51,VWS V14.01,2013-04-24 00:09:00,
2013-04-23 19:39:00,37.0,34.6,29.88,North,360,0.0,0.0,91,0.04,,---,0.52,VWS V14.01,2013-04-24 00:39:00,
2013-04-23 20:09:00,36.9,34.5,29.89,North,351,0.0,0.0,91,0.04,,---,0.53,VWS V14.01,2013-04-24 01:09:00,
2013-04-23 20:39:00,36.9,34.2,29.88,NNE,27,0.0,0.0,90,0.03,,---,0.54,VWS V14.01,2013-04-24 01:39:00,
2013-04-23 21:09:00,36.8,34.4,29.88,NE,49,0.0,0.0,91,0.02,,---,0.54,VWS V14.01,2013-04-24 02:09:00,
2013-04-23 21:39:00,36.8,34.4,29.87,NE,49,0.0,0.0,91,0.02,,---,0.55,VWS V14.01,2013-04-24 02:39:00,
2013-04-23 22:09:00,37.1,34.7,29.87,North,350,0.0,0.0,91,0.01,,---,0.55,VWS V14.01,2013-04-24 03:09:00,
2013-04-23 22:39:00,37.3,34.1,29.88,North,5,0.0,0.0,88,0.01,,---,0.55,VWS V14.01,2013-04-24 03:39:00,
2013-04-23 23:09:00,37.1,33.6,29.86,North,355,0.0,0.0,87,0.00,,---,0.55,VWS V14.01,2013-04-24 04:09:00,
2013-04-23 23:39:00,37.2,33.1,29.88,NNE,22,0.0,0.0,85,0.00,,---,0.55,VWS V14.01,2013-04-24 04:39:00,